sensor_id;sensor_type;location;lat;lon;timestamp;P1;durP1;ratioP1;P2;durP2;ratioP2
2558;SDS011;1289;53.488;10.006;2023-04-03T00:01:16;5.20;;;4.70;;
2558;SDS011;1289;53.488;10.006;2023-04-03T00:03:42;4.63;;;4.23;;
2558;SDS011;1289;53.488;10.006;2023-04-03T00:06:09;4.47;;;4.07;;
2558;SDS011;1289;53.488;10.006;2023-04-03T00:08:38;5.30;;;4.43;;
2558;SDS011;1289;53.488;10.006;2023-04-03T00:11:05;8.30;;;4.67;;
2558;SDS011;1289;53.488;10.006;2023-04-03T00:13:32;6.93;;;4.73;;
2558;SDS011;1289;53.488;10.006;2023-04-03T00:15:59;6.03;;;4.00;;
2558;SDS011;1289;53.488;10.006;2023-04-03T00:18:26;4.20;;;3.90;;
2558;SDS011;1289;53.488;10.006;2023-04-03T00:20:53;6.93;;;4.50;;
2558;SDS011;1289;53.488;10.006;2023-04-03T00:23:20;6.63;;;4.30;;
2558;SDS011;1289;53.488;10.006;2023-04-03T00:25:50;3.87;;;3.60;;
2558;SDS011;1289;53.488;10.006;2023-04-03T00:28:16;4.90;;;4.50;;
2558;SDS011;1289;53.488;10.006;2023-04-03T00:30:43;5.10;;;4.10;;
2558;SDS011;1289;53.488;10.006;2023-04-03T00:33:10;4.30;;;3.90;;
2558;SDS011;1289;53.488;10.006;2023-04-03T00:35:38;5.50;;;4.30;;
2558;SDS011;1289;53.488;10.006;2023-04-03T00:38:04;5.67;;;5.10;;
2558;SDS011;1289;53.488;10.006;2023-04-03T00:40:33;6.40;;;4.53;;
2558;SDS011;1289;53.488;10.006;2023-04-03T00:43:05;10.43;;;4.50;;
2558;SDS011;1289;53.488;10.006;2023-04-03T00:45:39;5.90;;;4.80;;
2558;SDS011;1289;53.488;10.006;2023-04-03T00:48:07;4.37;;;4.07;;
2558;SDS011;1289;53.488;10.006;2023-04-03T00:50:37;5.87;;;4.47;;
2558;SDS011;1289;53.488;10.006;2023-04-03T00:53:05;4.50;;;4.10;;
2558;SDS011;1289;53.488;10.006;2023-04-03T00:55:32;5.40;;;4.57;;
2558;SDS011;1289;53.488;10.006;2023-04-03T00:58:02;5.60;;;4.20;;
2558;SDS011;1289;53.488;10.006;2023-04-03T01:00:29;5.23;;;4.77;;
2558;SDS011;1289;53.488;10.006;2023-04-03T01:02:56;5.60;;;4.73;;
2558;SDS011;1289;53.488;10.006;2023-04-03T01:05:24;5.33;;;4.80;;
2558;SDS011;1289;53.488;10.006;2023-04-03T01:07:50;4.90;;;4.20;;
2558;SDS011;1289;53.488;10.006;2023-04-03T01:10:18;8.87;;;4.00;;
2558;SDS011;1289;53.488;10.006;2023-04-03T01:12:46;4.40;;;4.10;;
2558;SDS011;1289;53.488;10.006;2023-04-03T01:15:16;8.00;;;4.80;;
2558;SDS011;1289;53.488;10.006;2023-04-03T01:17:45;4.77;;;4.37;;
2558;SDS011;1289;53.488;10.006;2023-04-03T01:23:15;11.00;;;4.53;;
2558;SDS011;1289;53.488;10.006;2023-04-03T01:25:48;5.13;;;4.60;;
2558;SDS011;1289;53.488;10.006;2023-04-03T01:28:16;5.47;;;4.50;;
2558;SDS011;1289;53.488;10.006;2023-04-03T01:30:46;12.40;;;5.33;;
2558;SDS011;1289;53.488;10.006;2023-04-03T01:33:17;8.40;;;4.40;;
2558;SDS011;1289;53.488;10.006;2023-04-03T01:35:45;9.03;;;4.30;;
2558;SDS011;1289;53.488;10.006;2023-04-03T01:38:12;5.87;;;4.23;;
2558;SDS011;1289;53.488;10.006;2023-04-03T01:40:39;7.20;;;5.13;;
2558;SDS011;1289;53.488;10.006;2023-04-03T01:43:05;7.10;;;4.30;;
2558;SDS011;1289;53.488;10.006;2023-04-03T01:49:21;4.70;;;4.30;;
2558;SDS011;1289;53.488;10.006;2023-04-03T01:51:48;6.50;;;4.43;;
2558;SDS011;1289;53.488;10.006;2023-04-03T01:54:15;4.70;;;4.30;;
2558;SDS011;1289;53.488;10.006;2023-04-03T01:56:41;6.70;;;4.60;;
2558;SDS011;1289;53.488;10.006;2023-04-03T01:59:08;7.10;;;4.70;;
2558;SDS011;1289;53.488;10.006;2023-04-03T02:01:35;5.10;;;4.70;;
2558;SDS011;1289;53.488;10.006;2023-04-03T02:04:02;7.67;;;4.50;;
2558;SDS011;1289;53.488;10.006;2023-04-03T02:06:30;5.53;;;4.30;;
2558;SDS011;1289;53.488;10.006;2023-04-03T02:08:56;4.67;;;4.37;;
2558;SDS011;1289;53.488;10.006;2023-04-03T02:11:23;6.67;;;4.40;;
2558;SDS011;1289;53.488;10.006;2023-04-03T02:13:49;8.40;;;4.90;;
2558;SDS011;1289;53.488;10.006;2023-04-03T02:16:16;7.23;;;4.40;;
2558;SDS011;1289;53.488;10.006;2023-04-03T02:18:43;10.10;;;4.37;;
2558;SDS011;1289;53.488;10.006;2023-04-03T02:21:10;6.20;;;5.50;;
2558;SDS011;1289;53.488;10.006;2023-04-03T02:23:37;7.93;;;4.60;;
2558;SDS011;1289;53.488;10.006;2023-04-03T02:26:05;5.17;;;4.50;;
2558;SDS011;1289;53.488;10.006;2023-04-03T02:28:32;6.47;;;4.70;;
2558;SDS011;1289;53.488;10.006;2023-04-03T02:30:59;5.10;;;4.40;;
2558;SDS011;1289;53.488;10.006;2023-04-03T02:33:26;4.53;;;4.10;;
2558;SDS011;1289;53.488;10.006;2023-04-03T02:35:53;5.83;;;4.30;;
2558;SDS011;1289;53.488;10.006;2023-04-03T02:38:21;6.10;;;4.87;;
2558;SDS011;1289;53.488;10.006;2023-04-03T02:40:49;4.33;;;4.03;;
2558;SDS011;1289;53.488;10.006;2023-04-03T02:43:17;4.60;;;4.20;;
2558;SDS011;1289;53.488;10.006;2023-04-03T02:45:44;9.13;;;5.37;;
2558;SDS011;1289;53.488;10.006;2023-04-03T02:48:10;4.40;;;4.10;;
2558;SDS011;1289;53.488;10.006;2023-04-03T02:50:37;5.23;;;4.50;;
2558;SDS011;1289;53.488;10.006;2023-04-03T02:53:03;5.43;;;4.30;;
2558;SDS011;1289;53.488;10.006;2023-04-03T02:55:30;5.63;;;3.93;;
2558;SDS011;1289;53.488;10.006;2023-04-03T02:57:58;4.83;;;4.43;;
2558;SDS011;1289;53.488;10.006;2023-04-03T03:00:25;5.27;;;4.77;;
2558;SDS011;1289;53.488;10.006;2023-04-03T03:02:51;6.47;;;4.40;;
2558;SDS011;1289;53.488;10.006;2023-04-03T03:05:18;5.20;;;4.70;;
2558;SDS011;1289;53.488;10.006;2023-04-03T03:07:45;3.83;;;3.50;;
2558;SDS011;1289;53.488;10.006;2023-04-03T03:10:11;6.60;;;4.70;;
2558;SDS011;1289;53.488;10.006;2023-04-03T03:12:38;5.97;;;4.47;;
2558;SDS011;1289;53.488;10.006;2023-04-03T03:15:08;5.10;;;4.33;;
2558;SDS011;1289;53.488;10.006;2023-04-03T03:17:35;5.33;;;3.97;;
2558;SDS011;1289;53.488;10.006;2023-04-03T03:20:02;5.77;;;4.63;;
2558;SDS011;1289;53.488;10.006;2023-04-03T03:22:29;4.80;;;4.23;;
2558;SDS011;1289;53.488;10.006;2023-04-03T03:24:55;9.97;;;4.60;;
2558;SDS011;1289;53.488;10.006;2023-04-03T03:27:22;4.90;;;4.50;;
2558;SDS011;1289;53.488;10.006;2023-04-03T03:29:49;7.70;;;4.80;;
2558;SDS011;1289;53.488;10.006;2023-04-03T03:32:17;5.93;;;5.03;;
2558;SDS011;1289;53.488;10.006;2023-04-03T03:34:43;10.43;;;4.53;;
2558;SDS011;1289;53.488;10.006;2023-04-03T03:37:10;4.57;;;4.10;;
2558;SDS011;1289;53.488;10.006;2023-04-03T03:39:37;5.00;;;4.50;;
2558;SDS011;1289;53.488;10.006;2023-04-03T03:42:04;4.87;;;4.47;;
2558;SDS011;1289;53.488;10.006;2023-04-03T03:44:30;7.00;;;4.63;;
2558;SDS011;1289;53.488;10.006;2023-04-03T03:46:57;10.50;;;5.00;;
2558;SDS011;1289;53.488;10.006;2023-04-03T03:49:26;6.50;;;4.73;;
2558;SDS011;1289;53.488;10.006;2023-04-03T03:51:53;5.93;;;4.93;;
2558;SDS011;1289;53.488;10.006;2023-04-03T03:54:20;4.63;;;4.23;;
2558;SDS011;1289;53.488;10.006;2023-04-03T03:56:46;4.87;;;4.47;;
2558;SDS011;1289;53.488;10.006;2023-04-03T03:59:13;6.20;;;4.60;;
2558;SDS011;1289;53.488;10.006;2023-04-03T04:01:40;4.70;;;4.30;;
2558;SDS011;1289;53.488;10.006;2023-04-03T04:04:07;7.13;;;4.40;;
2558;SDS011;1289;53.488;10.006;2023-04-03T04:06:35;6.10;;;5.40;;
2558;SDS011;1289;53.488;10.006;2023-04-03T04:09:05;8.00;;;4.90;;
2558;SDS011;1289;53.488;10.006;2023-04-03T04:11:32;5.43;;;4.43;;
2558;SDS011;1289;53.488;10.006;2023-04-03T04:13:58;5.53;;;5.00;;
2558;SDS011;1289;53.488;10.006;2023-04-03T04:16:27;6.17;;;4.70;;
2558;SDS011;1289;53.488;10.006;2023-04-03T04:18:57;8.00;;;5.20;;
2558;SDS011;1289;53.488;10.006;2023-04-03T04:21:24;5.37;;;4.87;;
2558;SDS011;1289;53.488;10.006;2023-04-03T04:23:54;5.83;;;5.23;;
2558;SDS011;1289;53.488;10.006;2023-04-03T04:26:21;6.27;;;5.37;;
2558;SDS011;1289;53.488;10.006;2023-04-03T04:28:48;7.63;;;5.73;;
2558;SDS011;1289;53.488;10.006;2023-04-03T04:31:17;6.87;;;5.47;;
2558;SDS011;1289;53.488;10.006;2023-04-03T04:33:44;11.43;;;6.23;;
2558;SDS011;1289;53.488;10.006;2023-04-03T04:36:13;9.23;;;5.53;;
2558;SDS011;1289;53.488;10.006;2023-04-03T04:38:43;5.73;;;5.23;;
2558;SDS011;1289;53.488;10.006;2023-04-03T04:41:11;10.17;;;6.00;;
2558;SDS011;1289;53.488;10.006;2023-04-03T04:43:38;9.10;;;6.37;;
2558;SDS011;1289;53.488;10.006;2023-04-03T04:46:05;11.10;;;5.90;;
2558;SDS011;1289;53.488;10.006;2023-04-03T04:48:37;6.63;;;6.03;;
2558;SDS011;1289;53.488;10.006;2023-04-03T04:51:05;13.97;;;5.90;;
2558;SDS011;1289;53.488;10.006;2023-04-03T04:53:35;7.60;;;5.30;;
2558;SDS011;1289;53.488;10.006;2023-04-03T04:56:02;6.30;;;5.70;;
2558;SDS011;1289;53.488;10.006;2023-04-03T04:58:31;7.83;;;6.13;;
2558;SDS011;1289;53.488;10.006;2023-04-03T05:01:00;6.07;;;5.40;;
2558;SDS011;1289;53.488;10.006;2023-04-03T05:03:29;8.40;;;6.30;;
2558;SDS011;1289;53.488;10.006;2023-04-03T05:05:56;9.10;;;6.00;;
2558;SDS011;1289;53.488;10.006;2023-04-03T05:08:23;7.13;;;6.20;;
2558;SDS011;1289;53.488;10.006;2023-04-03T05:10:49;10.67;;;6.70;;
2558;SDS011;1289;53.488;10.006;2023-04-03T05:13:17;6.10;;;5.60;;
2558;SDS011;1289;53.488;10.006;2023-04-03T05:15:45;7.40;;;6.50;;
2558;SDS011;1289;53.488;10.006;2023-04-03T05:18:12;6.60;;;5.50;;
2558;SDS011;1289;53.488;10.006;2023-04-03T05:20:39;7.00;;;6.30;;
2558;SDS011;1289;53.488;10.006;2023-04-03T05:23:06;7.37;;;6.50;;
2558;SDS011;1289;53.488;10.006;2023-04-03T05:25:34;10.97;;;6.53;;
2558;SDS011;1289;53.488;10.006;2023-04-03T05:28:02;7.67;;;6.60;;
2558;SDS011;1289;53.488;10.006;2023-04-03T05:30:28;6.20;;;5.53;;
2558;SDS011;1289;53.488;10.006;2023-04-03T05:32:57;9.30;;;6.90;;
2558;SDS011;1289;53.488;10.006;2023-04-03T05:35:35;9.37;;;6.87;;
2558;SDS011;1289;53.488;10.006;2023-04-03T05:38:04;6.73;;;6.13;;
2558;SDS011;1289;53.488;10.006;2023-04-03T05:40:32;9.43;;;6.83;;
2558;SDS011;1289;53.488;10.006;2023-04-03T05:42:58;11.67;;;7.07;;
2558;SDS011;1289;53.488;10.006;2023-04-03T05:45:28;6.57;;;5.97;;
2558;SDS011;1289;53.488;10.006;2023-04-03T05:47:58;7.77;;;6.23;;
2558;SDS011;1289;53.488;10.006;2023-04-03T05:50:24;8.70;;;6.30;;
2558;SDS011;1289;53.488;10.006;2023-04-03T05:52:52;8.37;;;6.10;;
2558;SDS011;1289;53.488;10.006;2023-04-03T05:55:21;8.10;;;6.93;;
2558;SDS011;1289;53.488;10.006;2023-04-03T05:57:48;8.20;;;6.07;;
2558;SDS011;1289;53.488;10.006;2023-04-03T06:00:15;10.70;;;6.70;;
2558;SDS011;1289;53.488;10.006;2023-04-03T06:02:51;10.20;;;6.40;;
2558;SDS011;1289;53.488;10.006;2023-04-03T06:05:23;11.83;;;6.30;;
2558;SDS011;1289;53.488;10.006;2023-04-03T06:07:49;8.23;;;7.07;;
2558;SDS011;1289;53.488;10.006;2023-04-03T06:10:16;7.70;;;6.93;;
2558;SDS011;1289;53.488;10.006;2023-04-03T06:12:45;6.67;;;6.17;;
2558;SDS011;1289;53.488;10.006;2023-04-03T06:15:11;6.10;;;5.50;;
2558;SDS011;1289;53.488;10.006;2023-04-03T06:17:39;8.03;;;6.33;;
2558;SDS011;1289;53.488;10.006;2023-04-03T06:20:07;7.20;;;6.00;;
2558;SDS011;1289;53.488;10.006;2023-04-03T06:22:36;6.67;;;5.67;;
2558;SDS011;1289;53.488;10.006;2023-04-03T06:25:03;7.70;;;5.90;;
2558;SDS011;1289;53.488;10.006;2023-04-03T06:27:30;7.37;;;6.67;;
2558;SDS011;1289;53.488;10.006;2023-04-03T06:29:56;13.70;;;7.80;;
2558;SDS011;1289;53.488;10.006;2023-04-03T06:32:23;11.57;;;5.40;;
2558;SDS011;1289;53.488;10.006;2023-04-03T06:34:50;5.47;;;4.93;;
2558;SDS011;1289;53.488;10.006;2023-04-03T06:37:19;7.67;;;5.30;;
2558;SDS011;1289;53.488;10.006;2023-04-03T06:39:47;7.73;;;5.07;;
2558;SDS011;1289;53.488;10.006;2023-04-03T06:42:14;8.33;;;6.70;;
2558;SDS011;1289;53.488;10.006;2023-04-03T06:44:54;6.83;;;4.63;;
2558;SDS011;1289;53.488;10.006;2023-04-03T06:47:20;6.43;;;5.10;;
2558;SDS011;1289;53.488;10.006;2023-04-03T06:49:47;6.43;;;4.83;;
2558;SDS011;1289;53.488;10.006;2023-04-03T06:52:14;4.73;;;4.33;;
2558;SDS011;1289;53.488;10.006;2023-04-03T06:54:41;4.80;;;4.30;;
2558;SDS011;1289;53.488;10.006;2023-04-03T06:57:09;5.60;;;4.53;;
2558;SDS011;1289;53.488;10.006;2023-04-03T06:59:36;7.00;;;6.30;;
2558;SDS011;1289;53.488;10.006;2023-04-03T07:02:02;13.63;;;4.57;;
2558;SDS011;1289;53.488;10.006;2023-04-03T07:08:17;4.10;;;3.70;;
2558;SDS011;1289;53.488;10.006;2023-04-03T07:10:43;6.37;;;4.30;;
2558;SDS011;1289;53.488;10.006;2023-04-03T07:13:11;5.83;;;3.53;;
2558;SDS011;1289;53.488;10.006;2023-04-03T07:15:38;6.17;;;4.17;;
2558;SDS011;1289;53.488;10.006;2023-04-03T07:18:04;8.07;;;4.20;;
2558;SDS011;1289;53.488;10.006;2023-04-03T07:20:31;5.40;;;3.27;;
2558;SDS011;1289;53.488;10.006;2023-04-03T07:22:57;9.30;;;3.83;;
2558;SDS011;1289;53.488;10.006;2023-04-03T07:25:24;8.00;;;3.90;;
2558;SDS011;1289;53.488;10.006;2023-04-03T07:27:51;3.87;;;3.50;;
2558;SDS011;1289;53.488;10.006;2023-04-03T07:30:20;3.87;;;3.30;;
2558;SDS011;1289;53.488;10.006;2023-04-03T07:32:47;4.70;;;3.27;;
2558;SDS011;1289;53.488;10.006;2023-04-03T07:35:13;3.90;;;2.90;;
2558;SDS011;1289;53.488;10.006;2023-04-03T07:37:40;3.70;;;3.40;;
2558;SDS011;1289;53.488;10.006;2023-04-03T07:40:07;4.13;;;3.00;;
2558;SDS011;1289;53.488;10.006;2023-04-03T07:42:34;5.43;;;3.10;;
2558;SDS011;1289;53.488;10.006;2023-04-03T07:45:01;5.63;;;4.93;;
2558;SDS011;1289;53.488;10.006;2023-04-03T07:47:30;2.87;;;2.67;;
2558;SDS011;1289;53.488;10.006;2023-04-03T07:49:57;4.67;;;3.43;;
2558;SDS011;1289;53.488;10.006;2023-04-03T07:52:24;4.47;;;3.17;;
2558;SDS011;1289;53.488;10.006;2023-04-03T07:54:50;3.20;;;2.90;;
2558;SDS011;1289;53.488;10.006;2023-04-03T07:57:17;2.97;;;2.67;;
2558;SDS011;1289;53.488;10.006;2023-04-03T07:59:44;3.53;;;3.00;;
2558;SDS011;1289;53.488;10.006;2023-04-03T08:02:11;4.57;;;4.17;;
2558;SDS011;1289;53.488;10.006;2023-04-03T08:04:39;8.53;;;3.20;;
2558;SDS011;1289;53.488;10.006;2023-04-03T08:07:06;4.77;;;2.80;;
2558;SDS011;1289;53.488;10.006;2023-04-03T08:09:33;4.50;;;3.00;;
2558;SDS011;1289;53.488;10.006;2023-04-03T08:12:00;6.13;;;3.80;;
2558;SDS011;1289;53.488;10.006;2023-04-03T08:14:26;4.87;;;3.13;;
2558;SDS011;1289;53.488;10.006;2023-04-03T08:16:53;2.90;;;2.70;;
2558;SDS011;1289;53.488;10.006;2023-04-03T08:19:19;4.07;;;3.60;;
2558;SDS011;1289;53.488;10.006;2023-04-03T08:21:48;5.50;;;3.50;;
2558;SDS011;1289;53.488;10.006;2023-04-03T08:24:14;3.33;;;2.90;;
2558;SDS011;1289;53.488;10.006;2023-04-03T08:26:41;3.07;;;2.87;;
2558;SDS011;1289;53.488;10.006;2023-04-03T08:29:07;2.93;;;2.73;;
2558;SDS011;1289;53.488;10.006;2023-04-03T08:31:34;4.20;;;3.20;;
2558;SDS011;1289;53.488;10.006;2023-04-03T08:34:01;3.47;;;2.90;;
2558;SDS011;1289;53.488;10.006;2023-04-03T08:36:28;4.37;;;3.27;;
2558;SDS011;1289;53.488;10.006;2023-04-03T08:38:57;3.87;;;2.80;;
2558;SDS011;1289;53.488;10.006;2023-04-03T08:41:26;4.13;;;3.50;;
2558;SDS011;1289;53.488;10.006;2023-04-03T08:43:59;4.17;;;2.90;;
2558;SDS011;1289;53.488;10.006;2023-04-03T08:46:33;3.80;;;2.30;;
2558;SDS011;1289;53.488;10.006;2023-04-03T08:49:07;3.23;;;2.60;;
2558;SDS011;1289;53.488;10.006;2023-04-03T08:51:41;3.37;;;3.07;;
2558;SDS011;1289;53.488;10.006;2023-04-03T08:54:17;2.93;;;2.70;;
2558;SDS011;1289;53.488;10.006;2023-04-03T08:56:48;3.13;;;2.83;;
2558;SDS011;1289;53.488;10.006;2023-04-03T08:59:16;6.20;;;3.07;;
2558;SDS011;1289;53.488;10.006;2023-04-03T09:01:48;4.10;;;2.87;;
2558;SDS011;1289;53.488;10.006;2023-04-03T09:04:16;2.90;;;2.70;;
2558;SDS011;1289;53.488;10.006;2023-04-03T09:06:44;3.63;;;2.63;;
2558;SDS011;1289;53.488;10.006;2023-04-03T09:09:14;4.03;;;3.63;;
2558;SDS011;1289;53.488;10.006;2023-04-03T09:11:50;3.20;;;2.97;;
2558;SDS011;1289;53.488;10.006;2023-04-03T09:14:22;3.47;;;2.57;;
2558;SDS011;1289;53.488;10.006;2023-04-03T09:16:53;3.63;;;2.70;;
2558;SDS011;1289;53.488;10.006;2023-04-03T09:19:22;3.00;;;2.80;;
2558;SDS011;1289;53.488;10.006;2023-04-03T09:21:53;4.20;;;3.40;;
2558;SDS011;1289;53.488;10.006;2023-04-03T09:24:23;3.73;;;2.50;;
2558;SDS011;1289;53.488;10.006;2023-04-03T09:26:51;4.47;;;2.97;;
2558;SDS011;1289;53.488;10.006;2023-04-03T09:29:20;3.70;;;2.53;;
2558;SDS011;1289;53.488;10.006;2023-04-03T09:31:49;4.10;;;2.90;;
2558;SDS011;1289;53.488;10.006;2023-04-03T09:34:18;2.70;;;2.50;;
2558;SDS011;1289;53.488;10.006;2023-04-03T09:36:48;3.30;;;2.60;;
2558;SDS011;1289;53.488;10.006;2023-04-03T09:39:17;4.57;;;2.70;;
2558;SDS011;1289;53.488;10.006;2023-04-03T09:41:57;4.37;;;2.83;;
2558;SDS011;1289;53.488;10.006;2023-04-03T09:44:25;4.17;;;3.50;;
2558;SDS011;1289;53.488;10.006;2023-04-03T09:46:52;3.90;;;3.40;;
2558;SDS011;1289;53.488;10.006;2023-04-03T09:49:19;6.47;;;3.50;;
2558;SDS011;1289;53.488;10.006;2023-04-03T09:51:46;3.60;;;3.30;;
2558;SDS011;1289;53.488;10.006;2023-04-03T09:54:26;2.87;;;2.67;;
2558;SDS011;1289;53.488;10.006;2023-04-03T09:56:59;4.47;;;3.10;;
2558;SDS011;1289;53.488;10.006;2023-04-03T09:59:28;3.40;;;2.70;;
2558;SDS011;1289;53.488;10.006;2023-04-03T10:01:57;4.70;;;2.83;;
2558;SDS011;1289;53.488;10.006;2023-04-03T10:04:24;2.53;;;2.33;;
2558;SDS011;1289;53.488;10.006;2023-04-03T10:06:51;2.63;;;2.10;;
2558;SDS011;1289;53.488;10.006;2023-04-03T10:09:19;2.57;;;2.37;;
2558;SDS011;1289;53.488;10.006;2023-04-03T10:11:59;2.10;;;1.90;;
2558;SDS011;1289;53.488;10.006;2023-04-03T10:14:27;6.60;;;2.40;;
2558;SDS011;1289;53.488;10.006;2023-04-03T10:16:56;3.60;;;2.13;;
2558;SDS011;1289;53.488;10.006;2023-04-03T10:19:39;2.83;;;2.00;;
2558;SDS011;1289;53.488;10.006;2023-04-03T10:22:21;2.63;;;2.43;;
2558;SDS011;1289;53.488;10.006;2023-04-03T10:24:56;2.63;;;2.43;;
2558;SDS011;1289;53.488;10.006;2023-04-03T10:27:35;2.60;;;2.40;;
2558;SDS011;1289;53.488;10.006;2023-04-03T10:30:10;2.40;;;2.20;;
2558;SDS011;1289;53.488;10.006;2023-04-03T10:32:47;2.37;;;2.00;;
2558;SDS011;1289;53.488;10.006;2023-04-03T10:35:25;2.63;;;2.43;;
2558;SDS011;1289;53.488;10.006;2023-04-03T10:38:01;3.13;;;2.30;;
2558;SDS011;1289;53.488;10.006;2023-04-03T10:40:33;3.77;;;2.53;;
2558;SDS011;1289;53.488;10.006;2023-04-03T10:43:06;2.63;;;2.43;;
2558;SDS011;1289;53.488;10.006;2023-04-03T10:45:48;2.80;;;2.10;;
2558;SDS011;1289;53.488;10.006;2023-04-03T10:48:25;3.80;;;2.57;;
2558;SDS011;1289;53.488;10.006;2023-04-03T10:50:58;3.00;;;2.70;;
2558;SDS011;1289;53.488;10.006;2023-04-03T10:53:29;2.47;;;2.27;;
2558;SDS011;1289;53.488;10.006;2023-04-03T10:56:01;2.93;;;2.60;;
2558;SDS011;1289;53.488;10.006;2023-04-03T10:58:34;2.60;;;2.27;;
2558;SDS011;1289;53.488;10.006;2023-04-03T11:01:04;3.40;;;2.33;;
2558;SDS011;1289;53.488;10.006;2023-04-03T11:03:34;2.93;;;2.73;;
2558;SDS011;1289;53.488;10.006;2023-04-03T11:06:05;2.77;;;2.20;;
2558;SDS011;1289;53.488;10.006;2023-04-03T11:08:34;3.60;;;3.30;;
2558;SDS011;1289;53.488;10.006;2023-04-03T11:11:05;2.60;;;2.40;;
2558;SDS011;1289;53.488;10.006;2023-04-03T11:13:35;2.77;;;2.57;;
2558;SDS011;1289;53.488;10.006;2023-04-03T11:16:05;2.77;;;2.40;;
2558;SDS011;1289;53.488;10.006;2023-04-03T11:18:32;2.73;;;2.53;;
2558;SDS011;1289;53.488;10.006;2023-04-03T11:21:03;2.60;;;2.40;;
2558;SDS011;1289;53.488;10.006;2023-04-03T11:23:31;2.40;;;2.20;;
2558;SDS011;1289;53.488;10.006;2023-04-03T11:26:07;2.93;;;2.10;;
2558;SDS011;1289;53.488;10.006;2023-04-03T11:28:38;3.97;;;2.17;;
2558;SDS011;1289;53.488;10.006;2023-04-03T11:31:08;4.03;;;2.67;;
2558;SDS011;1289;53.488;10.006;2023-04-03T11:33:44;2.33;;;1.80;;
2558;SDS011;1289;53.488;10.006;2023-04-03T11:36:18;2.37;;;2.17;;
2558;SDS011;1289;53.488;10.006;2023-04-03T11:38:48;2.80;;;2.27;;
2558;SDS011;1289;53.488;10.006;2023-04-03T11:41:16;4.80;;;2.33;;
2558;SDS011;1289;53.488;10.006;2023-04-03T11:43:55;2.63;;;2.43;;
2558;SDS011;1289;53.488;10.006;2023-04-03T11:46:23;2.70;;;2.50;;
2558;SDS011;1289;53.488;10.006;2023-04-03T11:58:25;3.13;;;2.30;;
2558;SDS011;1289;53.488;10.006;2023-04-03T12:00:58;2.73;;;2.53;;
2558;SDS011;1289;53.488;10.006;2023-04-03T12:03:33;5.37;;;2.73;;
2558;SDS011;1289;53.488;10.006;2023-04-03T12:09:22;2.90;;;2.53;;
2558;SDS011;1289;53.488;10.006;2023-04-03T12:11:49;2.30;;;2.10;;
2558;SDS011;1289;53.488;10.006;2023-04-03T12:14:17;3.50;;;3.20;;
2558;SDS011;1289;53.488;10.006;2023-04-03T12:16:46;3.10;;;2.80;;
2558;SDS011;1289;53.488;10.006;2023-04-03T12:19:33;2.87;;;2.67;;
2558;SDS011;1289;53.488;10.006;2023-04-03T12:22:08;4.60;;;2.47;;
2558;SDS011;1289;53.488;10.006;2023-04-03T12:24:39;3.63;;;2.67;;
2558;SDS011;1289;53.488;10.006;2023-04-03T12:27:21;5.57;;;3.10;;
2558;SDS011;1289;53.488;10.006;2023-04-03T12:29:56;2.73;;;2.53;;
2558;SDS011;1289;53.488;10.006;2023-04-03T12:32:34;3.40;;;2.67;;
2558;SDS011;1289;53.488;10.006;2023-04-03T12:35:10;3.20;;;2.77;;
2558;SDS011;1289;53.488;10.006;2023-04-03T12:40:47;4.80;;;3.37;;
2558;SDS011;1289;53.488;10.006;2023-04-03T12:43:20;3.30;;;2.67;;
2558;SDS011;1289;53.488;10.006;2023-04-03T12:45:56;3.43;;;3.13;;
2558;SDS011;1289;53.488;10.006;2023-04-03T12:48:28;2.87;;;2.63;;
2558;SDS011;1289;53.488;10.006;2023-04-03T12:50:57;5.97;;;2.77;;
2558;SDS011;1289;53.488;10.006;2023-04-03T12:53:25;2.67;;;2.47;;
2558;SDS011;1289;53.488;10.006;2023-04-03T12:55:53;3.80;;;3.03;;
2558;SDS011;1289;53.488;10.006;2023-04-03T12:58:21;2.87;;;2.67;;
2558;SDS011;1289;53.488;10.006;2023-04-03T13:00:58;2.57;;;2.37;;
2558;SDS011;1289;53.488;10.006;2023-04-03T13:03:27;4.53;;;2.43;;
2558;SDS011;1289;53.488;10.006;2023-04-03T13:05:55;3.20;;;2.90;;
2558;SDS011;1289;53.488;10.006;2023-04-03T13:08:25;3.90;;;2.90;;
2558;SDS011;1289;53.488;10.006;2023-04-03T13:10:54;4.57;;;2.80;;
2558;SDS011;1289;53.488;10.006;2023-04-03T13:13:22;3.17;;;2.70;;
2558;SDS011;1289;53.488;10.006;2023-04-03T13:15:49;2.67;;;2.47;;
2558;SDS011;1289;53.488;10.006;2023-04-03T13:18:24;3.87;;;2.60;;
2558;SDS011;1289;53.488;10.006;2023-04-03T13:20:56;5.67;;;3.60;;
2558;SDS011;1289;53.488;10.006;2023-04-03T13:23:26;2.97;;;2.67;;
2558;SDS011;1289;53.488;10.006;2023-04-03T13:25:52;3.73;;;2.90;;
2558;SDS011;1289;53.488;10.006;2023-04-03T13:28:20;9.20;;;4.37;;
2558;SDS011;1289;53.488;10.006;2023-04-03T13:31:03;2.60;;;2.40;;
2558;SDS011;1289;53.488;10.006;2023-04-03T13:33:32;4.60;;;2.83;;
2558;SDS011;1289;53.488;10.006;2023-04-03T13:36:05;3.03;;;2.60;;
2558;SDS011;1289;53.488;10.006;2023-04-03T13:38:34;2.83;;;2.60;;
2558;SDS011;1289;53.488;10.006;2023-04-03T13:41:02;5.03;;;2.60;;
2558;SDS011;1289;53.488;10.006;2023-04-03T13:43:31;2.67;;;2.20;;
2558;SDS011;1289;53.488;10.006;2023-04-03T13:46:01;3.90;;;3.20;;
2558;SDS011;1289;53.488;10.006;2023-04-03T13:48:36;3.27;;;2.80;;
2558;SDS011;1289;53.488;10.006;2023-04-03T13:51:07;3.50;;;2.97;;
2558;SDS011;1289;53.488;10.006;2023-04-03T13:53:44;3.87;;;2.73;;
2558;SDS011;1289;53.488;10.006;2023-04-03T13:56:16;4.03;;;2.73;;
2558;SDS011;1289;53.488;10.006;2023-04-03T13:58:52;4.13;;;2.70;;
2558;SDS011;1289;53.488;10.006;2023-04-03T14:01:25;2.83;;;2.30;;
2558;SDS011;1289;53.488;10.006;2023-04-03T14:03:53;3.60;;;2.83;;
2558;SDS011;1289;53.488;10.006;2023-04-03T14:06:23;2.93;;;2.53;;
2558;SDS011;1289;53.488;10.006;2023-04-03T14:08:50;3.20;;;2.90;;
2558;SDS011;1289;53.488;10.006;2023-04-03T14:11:18;3.63;;;3.20;;
2558;SDS011;1289;53.488;10.006;2023-04-03T14:13:47;3.00;;;2.73;;
2558;SDS011;1289;53.488;10.006;2023-04-03T14:16:16;2.93;;;2.70;;
2558;SDS011;1289;53.488;10.006;2023-04-03T14:18:45;2.93;;;2.73;;
2558;SDS011;1289;53.488;10.006;2023-04-03T14:21:13;3.10;;;2.70;;
2558;SDS011;1289;53.488;10.006;2023-04-03T14:23:42;3.03;;;2.67;;
2558;SDS011;1289;53.488;10.006;2023-04-03T14:26:10;2.87;;;2.57;;
2558;SDS011;1289;53.488;10.006;2023-04-03T14:28:39;3.00;;;2.70;;
2558;SDS011;1289;53.488;10.006;2023-04-03T14:31:06;3.40;;;3.10;;
2558;SDS011;1289;53.488;10.006;2023-04-03T14:33:33;3.23;;;2.93;;
2558;SDS011;1289;53.488;10.006;2023-04-03T14:36:00;3.33;;;2.90;;
2558;SDS011;1289;53.488;10.006;2023-04-03T14:38:28;3.30;;;2.80;;
2558;SDS011;1289;53.488;10.006;2023-04-03T14:40:57;3.40;;;3.00;;
2558;SDS011;1289;53.488;10.006;2023-04-03T14:43:24;5.20;;;2.67;;
2558;SDS011;1289;53.488;10.006;2023-04-03T14:45:51;3.10;;;2.80;;
2558;SDS011;1289;53.488;10.006;2023-04-03T14:48:19;2.60;;;2.40;;
2558;SDS011;1289;53.488;10.006;2023-04-03T14:50:47;4.13;;;3.73;;
2558;SDS011;1289;53.488;10.006;2023-04-03T14:53:14;3.33;;;2.97;;
2558;SDS011;1289;53.488;10.006;2023-04-03T14:55:42;3.17;;;2.77;;
2558;SDS011;1289;53.488;10.006;2023-04-03T14:58:13;2.83;;;2.63;;
2558;SDS011;1289;53.488;10.006;2023-04-03T15:00:40;2.90;;;2.70;;
2558;SDS011;1289;53.488;10.006;2023-04-03T15:03:09;3.70;;;3.00;;
2558;SDS011;1289;53.488;10.006;2023-04-03T15:05:39;3.23;;;2.93;;
2558;SDS011;1289;53.488;10.006;2023-04-03T15:08:08;4.20;;;2.97;;
2558;SDS011;1289;53.488;10.006;2023-04-03T15:10:44;2.67;;;2.47;;
2558;SDS011;1289;53.488;10.006;2023-04-03T15:13:10;3.03;;;2.83;;
2558;SDS011;1289;53.488;10.006;2023-04-03T15:15:39;3.57;;;2.60;;
2558;SDS011;1289;53.488;10.006;2023-04-03T15:18:06;3.27;;;2.97;;
2558;SDS011;1289;53.488;10.006;2023-04-03T15:20:33;3.40;;;3.10;;
2558;SDS011;1289;53.488;10.006;2023-04-03T15:23:00;3.90;;;2.77;;
2558;SDS011;1289;53.488;10.006;2023-04-03T15:25:27;2.90;;;2.70;;
2558;SDS011;1289;53.488;10.006;2023-04-03T15:27:54;3.23;;;2.97;;
2558;SDS011;1289;53.488;10.006;2023-04-03T15:30:23;3.90;;;3.60;;
2558;SDS011;1289;53.488;10.006;2023-04-03T15:32:49;6.80;;;2.70;;
2558;SDS011;1289;53.488;10.006;2023-04-03T15:35:16;3.50;;;2.70;;
2558;SDS011;1289;53.488;10.006;2023-04-03T15:37:43;6.40;;;3.30;;